createdAt,value
2023-05-09T00:00:46.910Z,22.80
2023-05-09T00:01:47.357Z,21.30
2023-05-09T00:02:46.927Z,24.60
2023-05-09T00:03:46.924Z,23.50
2023-05-09T00:04:47.159Z,22.90
2023-05-09T00:05:46.840Z,22.20
2023-05-09T00:06:46.834Z,23.00
2023-05-09T00:07:46.949Z,21.80
2023-05-09T00:08:46.849Z,22.00
2023-05-09T00:09:47.067Z,24.00
2023-05-09T00:10:47.071Z,23.90
2023-05-09T00:11:47.206Z,24.30
2023-05-09T00:12:46.984Z,22.30
2023-05-09T00:13:46.788Z,22.80
2023-05-09T00:14:47.319Z,24.40
2023-05-09T00:15:47.326Z,25.10
2023-05-09T00:16:47.457Z,21.90
2023-05-09T00:17:47.502Z,22.10
2023-05-09T00:18:46.924Z,24.50
2023-05-09T00:19:46.744Z,26.20
2023-05-09T00:20:46.730Z,23.30
2023-05-09T00:21:47.449Z,23.60
2023-05-09T00:22:46.740Z,24.80
2023-05-09T00:23:47.167Z,22.50
2023-05-09T00:24:46.762Z,23.20
2023-05-09T00:25:46.769Z,23.50
2023-05-09T00:26:46.687Z,22.30
2023-05-09T00:27:46.717Z,25.30
2023-05-09T00:28:46.685Z,25.00
2023-05-09T00:29:46.690Z,26.80
2023-05-09T00:30:46.700Z,26.70
2023-05-09T00:31:46.726Z,26.10
2023-05-09T00:32:46.736Z,24.50
2023-05-09T00:33:46.726Z,24.80
2023-05-09T00:34:46.630Z,24.70
2023-05-09T00:35:46.757Z,23.60
2023-05-09T00:36:46.761Z,27.00
2023-05-09T00:37:46.761Z,26.00
2023-05-09T00:38:46.764Z,23.50
2023-05-09T00:39:46.862Z,27.50
2023-05-09T00:40:46.771Z,25.70
2023-05-09T00:41:46.885Z,25.30
2023-05-09T00:42:46.889Z,24.70
2023-05-09T00:43:46.792Z,26.30
2023-05-09T00:44:46.687Z,26.40
2023-05-09T00:45:46.834Z,25.00
2023-05-09T00:46:47.013Z,26.40
2023-05-09T00:47:47.048Z,25.20
2023-05-09T00:48:46.632Z,27.10
2023-05-09T00:49:46.623Z,24.20
2023-05-09T00:50:47.053Z,25.40
2023-05-09T00:51:47.052Z,27.50
2023-05-09T00:52:47.058Z,24.50
2023-05-09T00:53:47.065Z,25.30
2023-05-09T00:54:46.659Z,24.10
2023-05-09T00:55:47.094Z,26.80
2023-05-09T00:56:46.695Z,26.10
2023-05-09T00:57:46.487Z,26.80
2023-05-09T00:58:46.889Z,25.90
2023-05-09T00:59:46.501Z,26.70
2023-05-09T01:00:46.508Z,26.30
2023-05-09T01:01:46.586Z,24.70
2023-05-09T01:02:46.482Z,24.50
2023-05-09T01:03:46.509Z,23.20
2023-05-09T01:04:46.422Z,24.70
2023-05-09T01:05:46.431Z,26.60
2023-05-09T01:06:46.441Z,25.30
2023-05-09T01:07:46.564Z,26.20
2023-05-09T01:08:46.561Z,24.60
2023-05-09T01:09:46.462Z,31.10
2023-05-09T01:10:46.588Z,25.00
2023-05-09T01:11:46.385Z,26.50
2023-05-09T01:12:46.596Z,28.80
2023-05-09T01:13:46.392Z,23.90
2023-05-09T01:14:46.493Z,27.90
2023-05-09T01:15:46.501Z,26.60
2023-05-09T01:16:46.435Z,26.80
2023-05-09T01:17:46.686Z,28.30
2023-05-09T01:18:46.645Z,27.60
2023-05-09T01:19:46.653Z,26.50
2023-05-09T01:20:46.658Z,27.50
2023-05-09T01:21:46.653Z,25.80
2023-05-09T01:22:46.700Z,28.80
2023-05-09T01:23:46.675Z,30.70
2023-05-09T01:24:46.298Z,27.80
2023-05-09T01:25:46.683Z,27.20
2023-05-09T01:26:46.708Z,25.90
2023-05-09T01:27:46.695Z,28.40
2023-05-09T01:28:46.288Z,28.40
2023-05-09T01:29:46.313Z,27.60
2023-05-09T01:30:46.335Z,30.10
2023-05-09T01:31:46.377Z,30.50
2023-05-09T01:32:46.362Z,33.70
2023-05-09T01:33:46.432Z,32.90
2023-05-09T01:34:46.547Z,30.50
2023-05-09T01:35:46.561Z,31.00
2023-05-09T01:36:46.548Z,33.10
2023-05-09T01:37:46.666Z,28.90
2023-05-09T01:38:46.792Z,31.30
2023-05-09T01:39:46.786Z,32.00
2023-05-09T01:40:46.394Z,29.80
2023-05-09T01:41:46.594Z,30.30
2023-05-09T01:42:46.212Z,31.70
2023-05-09T01:43:46.255Z,29.90
2023-05-09T01:44:46.414Z,32.30
2023-05-09T01:45:46.625Z,29.40
2023-05-09T01:46:46.895Z,29.50
2023-05-09T01:47:46.886Z,29.80
2023-05-09T01:48:46.126Z,33.10
2023-05-09T01:49:46.236Z,31.70
2023-05-09T01:50:46.862Z,34.20
2023-05-09T01:51:46.679Z,28.60
2023-05-09T01:52:46.873Z,28.20
2023-05-09T01:53:46.882Z,29.70
2023-05-09T01:54:46.531Z,27.50
2023-05-09T01:55:46.480Z,29.30
2023-05-09T01:56:46.079Z,31.60
2023-05-09T01:57:46.969Z,34.40
2023-05-09T01:58:46.062Z,29.00
2023-05-09T01:59:46.028Z,29.90
2023-05-09T02:00:46.209Z,36.90
2023-05-09T02:01:46.178Z,32.70
2023-05-09T02:02:46.336Z,28.10
2023-05-09T02:03:46.019Z,31.00
2023-05-09T02:04:46.146Z,29.10
2023-05-09T02:05:46.451Z,30.30
2023-05-09T02:06:46.173Z,32.90
2023-05-09T02:07:46.586Z,32.30
2023-05-09T02:08:46.586Z,36.90
2023-05-09T02:09:45.972Z,35.30
2023-05-09T02:10:46.821Z,33.70
2023-05-09T02:11:46.184Z,39.10
2023-05-09T02:12:46.835Z,33.90
2023-05-09T02:13:45.990Z,34.30
2023-05-09T02:14:45.998Z,35.40
2023-05-09T02:15:46.002Z,36.20
2023-05-09T02:16:47.000Z,35.20
2023-05-09T02:17:46.860Z,33.20
2023-05-09T02:18:46.637Z,36.00
2023-05-09T02:19:46.863Z,36.60
2023-05-09T02:20:46.846Z,31.20
2023-05-09T02:21:45.871Z,34.40
2023-05-09T02:22:45.867Z,32.70
2023-05-09T02:23:45.878Z,34.90
2023-05-09T02:24:46.683Z,34.10
2023-05-09T02:25:45.886Z,31.90
2023-05-09T02:26:45.903Z,32.40
2023-05-09T02:27:46.013Z,37.00
2023-05-09T02:28:45.912Z,33.00
2023-05-09T02:29:45.925Z,33.60
2023-05-09T02:30:45.823Z,34.90
2023-05-09T02:31:45.934Z,30.40
2023-05-09T02:32:45.956Z,34.80
2023-05-09T02:33:45.936Z,31.40
2023-05-09T02:34:45.934Z,30.50
2023-05-09T02:35:46.055Z,31.30
2023-05-09T02:36:45.954Z,30.30
2023-05-09T02:37:45.769Z,33.70
2023-05-09T02:38:45.759Z,32.00
2023-05-09T02:39:45.876Z,34.00
2023-05-09T02:40:46.004Z,31.00
2023-05-09T02:41:45.784Z,34.20
2023-05-09T02:42:45.990Z,33.20
2023-05-09T02:43:46.056Z,32.80
2023-05-09T02:44:45.809Z,34.20
2023-05-09T02:45:45.817Z,35.60
2023-05-09T02:46:46.030Z,30.90
2023-05-09T02:47:46.073Z,32.50
2023-05-09T02:48:46.043Z,32.50
2023-05-09T02:49:46.046Z,36.10
2023-05-09T02:50:46.054Z,33.70
2023-05-09T02:51:46.053Z,31.40
2023-05-09T02:52:45.668Z,35.00
2023-05-09T02:53:45.692Z,41.00
2023-05-09T02:54:45.710Z,40.30
2023-05-09T02:55:45.700Z,33.70
2023-05-09T02:56:45.739Z,33.70
2023-05-09T02:57:45.802Z,33.20
2023-05-09T02:58:45.804Z,34.40
2023-05-09T02:59:45.807Z,33.90
2023-05-09T03:00:45.944Z,34.50
2023-05-09T03:01:45.886Z,30.90
2023-05-09T03:02:46.195Z,31.40
2023-05-09T03:03:46.348Z,35.50
2023-05-09T03:04:45.737Z,35.90
2023-05-09T03:05:45.949Z,33.70
2023-05-09T03:06:45.756Z,33.40
2023-05-09T03:07:46.389Z,32.90
2023-05-09T03:08:45.579Z,34.40
2023-05-09T03:09:46.056Z,31.30
2023-05-09T03:10:46.028Z,30.30
2023-05-09T03:11:46.197Z,32.70
2023-05-09T03:12:46.456Z,33.70
2023-05-09T03:13:45.805Z,34.90
2023-05-09T03:14:45.602Z,33.30
2023-05-09T03:15:46.051Z,37.00
2023-05-09T03:16:46.292Z,37.00
2023-05-09T03:17:46.462Z,38.40
2023-05-09T03:18:45.628Z,37.10
2023-05-09T03:19:45.470Z,37.30
2023-05-09T03:20:46.420Z,38.60
2023-05-09T03:21:45.470Z,37.70
2023-05-09T03:22:45.506Z,33.90
2023-05-09T03:23:45.473Z,36.90
2023-05-09T03:24:45.578Z,34.60
2023-05-09T03:25:45.584Z,37.50
2023-05-09T03:26:45.700Z,35.80
2023-05-09T03:27:45.495Z,34.20
2023-05-09T03:28:45.805Z,36.30
2023-05-09T03:29:45.948Z,33.10
2023-05-09T03:30:45.924Z,36.10
2023-05-09T03:31:46.083Z,33.20
2023-05-09T03:32:45.582Z,37.50
2023-05-09T03:33:46.163Z,40.10
2023-05-09T03:34:45.360Z,44.10
2023-05-09T03:35:46.264Z,37.90
2023-05-09T03:36:45.351Z,38.30
2023-05-09T03:37:45.565Z,42.10
2023-05-09T03:38:45.772Z,43.30
2023-05-09T03:39:46.395Z,41.00
2023-05-09T03:40:45.788Z,41.20
2023-05-09T03:41:45.381Z,39.70
2023-05-09T03:42:45.831Z,38.40
2023-05-09T03:43:46.274Z,42.30
2023-05-09T03:44:46.175Z,39.40
2023-05-09T03:45:46.054Z,36.80
2023-05-09T03:46:46.084Z,38.40
2023-05-09T03:47:45.891Z,45.10
2023-05-09T03:48:45.845Z,44.50
2023-05-09T03:49:45.269Z,49.10
2023-05-09T03:50:45.272Z,46.40
2023-05-09T03:51:45.282Z,42.00
2023-05-09T03:52:45.295Z,45.80
2023-05-09T03:53:45.273Z,50.60
2023-05-09T03:54:45.265Z,44.90
2023-05-09T03:55:45.516Z,48.00
2023-05-09T03:56:46.684Z,40.60
2023-05-09T03:57:45.613Z,41.50
2023-05-09T03:58:45.509Z,42.90
2023-05-09T03:59:45.756Z,44.80
2023-05-09T04:00:45.730Z,51.20
2023-05-09T04:01:45.985Z,47.80
2023-05-09T04:02:45.994Z,47.00
2023-05-09T04:03:46.137Z,51.50
2023-05-09T04:04:45.144Z,48.30
2023-05-09T04:05:45.553Z,45.30
2023-05-09T04:06:45.149Z,50.30
2023-05-09T04:07:46.007Z,48.00
2023-05-09T04:08:45.786Z,50.50
2023-05-09T04:09:45.176Z,43.60
2023-05-09T04:10:45.982Z,42.90
2023-05-09T04:11:45.394Z,49.70
2023-05-09T04:12:45.615Z,50.10
2023-05-09T04:13:45.820Z,47.00
2023-05-09T04:14:48.811Z,48.40
2023-05-09T04:15:46.006Z,44.60
2023-05-09T04:16:46.007Z,46.50
2023-05-09T04:17:45.096Z,44.70
2023-05-09T04:18:45.032Z,42.60
2023-05-09T04:19:45.163Z,44.10
2023-05-09T04:20:45.158Z,45.60
2023-05-09T04:21:45.269Z,39.30
2023-05-09T04:22:46.940Z,40.60
2023-05-09T04:23:45.383Z,37.90
2023-05-09T04:24:45.389Z,41.50
2023-05-09T04:25:45.298Z,40.10
2023-05-09T04:26:45.503Z,43.10
2023-05-09T04:27:45.198Z,44.20
2023-05-09T04:28:45.618Z,39.00
2023-05-09T04:29:45.734Z,41.40
2023-05-09T04:30:45.810Z,41.00
2023-05-09T04:31:45.222Z,40.50
2023-05-09T04:32:44.965Z,41.10
2023-05-09T04:33:44.934Z,38.50
2023-05-09T04:34:44.946Z,36.80
2023-05-09T04:35:44.965Z,36.90
2023-05-09T04:36:44.961Z,36.60
2023-05-09T04:37:44.964Z,36.20
2023-05-09T04:38:44.969Z,38.30
2023-05-09T04:39:44.987Z,37.50
2023-05-09T04:40:44.992Z,38.90
2023-05-09T04:41:44.992Z,34.10
2023-05-09T04:42:45.006Z,37.10
2023-05-09T04:43:45.116Z,34.30
2023-05-09T04:44:45.123Z,33.90
2023-05-09T04:45:44.863Z,34.10
2023-05-09T04:46:44.886Z,34.30
2023-05-09T04:47:44.954Z,33.60
2023-05-09T04:48:44.849Z,32.90
2023-05-09T04:49:44.983Z,35.70
2023-05-09T04:50:44.975Z,32.70
2023-05-09T04:51:44.987Z,35.30
2023-05-09T04:52:45.100Z,33.50
2023-05-09T04:53:45.200Z,33.20
2023-05-09T04:54:45.201Z,36.10
2023-05-09T04:55:45.208Z,34.40
2023-05-09T04:56:45.264Z,34.60
2023-05-09T04:57:45.214Z,36.50
2023-05-09T04:58:45.216Z,30.80
2023-05-09T04:59:44.756Z,31.10
2023-05-09T05:00:44.919Z,32.80
2023-05-09T05:01:45.259Z,32.90
2023-05-09T05:02:45.229Z,31.90
2023-05-09T05:03:44.758Z,30.10
2023-05-09T05:04:46.285Z,32.10
2023-05-09T05:05:44.923Z,31.80
2023-05-09T05:06:44.698Z,32.80
2023-05-09T05:07:44.769Z,30.20
2023-05-09T05:08:45.389Z,29.00
2023-05-09T05:09:44.685Z,29.60
2023-05-09T05:10:44.892Z,28.00
2023-05-09T05:11:57.098Z,25.10
2023-05-09T05:12:45.473Z,27.10
2023-05-09T05:13:44.912Z,30.30
2023-05-09T05:14:45.603Z,28.50
2023-05-09T05:15:44.698Z,30.30
2023-05-09T05:16:44.741Z,30.60
2023-05-09T05:17:44.884Z,31.50
2023-05-09T05:18:44.661Z,28.70
2023-05-09T05:19:44.750Z,28.20
2023-05-09T05:20:44.615Z,27.30
2023-05-09T05:21:44.771Z,29.30
2023-05-09T05:22:44.695Z,26.90
2023-05-09T05:23:44.983Z,27.60
2023-05-09T05:24:45.099Z,29.40
2023-05-09T05:25:44.584Z,29.70
2023-05-09T05:26:44.820Z,28.90
2023-05-09T05:27:44.701Z,27.80
2023-05-09T05:28:44.612Z,29.60
2023-05-09T05:29:44.543Z,29.70
2023-05-09T05:30:45.132Z,29.40
2023-05-09T05:31:44.635Z,28.90
2023-05-09T05:32:44.798Z,30.00
2023-05-09T05:33:44.540Z,25.20
2023-05-09T05:36:10.702Z,27.70
2023-05-09T05:37:10.769Z,30.10
2023-05-09T05:38:10.472Z,27.40
2023-05-09T05:39:10.785Z,28.50
2023-05-09T05:40:10.810Z,29.90
2023-05-09T05:41:10.801Z,28.90
2023-05-09T05:42:10.807Z,28.90
2023-05-09T05:43:10.417Z,26.30
2023-05-09T05:44:10.731Z,25.70
2023-05-09T05:45:10.419Z,25.50
2023-05-09T05:46:10.454Z,21.10
2023-05-09T05:47:10.440Z,25.80
2023-05-09T05:48:10.623Z,25.20
2023-05-09T05:49:10.562Z,27.40
2023-05-09T05:50:10.354Z,22.90
2023-05-09T05:51:10.812Z,26.00
2023-05-09T05:52:10.776Z,25.90
2023-05-09T05:53:10.852Z,25.60
2023-05-09T05:54:10.977Z,26.30
2023-05-09T05:55:11.009Z,23.70
2023-05-09T05:56:10.816Z,22.80
2023-05-09T05:57:10.298Z,23.80
2023-05-09T05:58:10.315Z,27.60
2023-05-09T05:59:11.350Z,23.90
2023-05-09T06:00:11.047Z,23.50
2023-05-09T06:01:10.340Z,26.10
2023-05-09T06:02:10.438Z,22.60
2023-05-09T06:03:10.318Z,24.30
2023-05-09T06:04:10.344Z,25.30
2023-05-09T06:05:11.063Z,24.30
2023-05-09T06:06:10.262Z,24.30
2023-05-09T06:07:10.369Z,24.50
2023-05-09T06:08:10.380Z,25.90
2023-05-09T06:09:10.383Z,26.50
2023-05-09T06:10:10.206Z,25.70
2023-05-09T06:11:10.394Z,23.80
2023-05-09T06:12:10.205Z,23.50
2023-05-09T06:13:10.234Z,23.80
2023-05-09T06:14:10.217Z,23.40
2023-05-09T06:15:10.331Z,22.90
2023-05-09T06:17:10.518Z,24.30
2023-05-09T06:18:10.511Z,24.40
2023-05-09T06:19:10.450Z,22.20
2023-05-09T06:20:10.161Z,22.00
2023-05-09T06:21:10.470Z,25.20
2023-05-09T06:22:10.481Z,23.90
2023-05-09T06:23:10.579Z,23.40
2023-05-09T06:24:19.816Z,22.40
2023-05-09T06:25:10.717Z,22.20
2023-05-09T06:26:10.199Z,22.80
2023-05-09T06:27:10.203Z,24.00
2023-05-09T06:28:10.215Z,23.30
2023-05-09T06:29:10.139Z,22.70
2023-05-09T06:31:10.368Z,22.20
2023-05-09T06:32:10.349Z,20.10
2023-05-09T06:33:10.358Z,22.10
2023-05-09T06:34:10.149Z,22.70
2023-05-09T06:35:10.535Z,22.20
2023-05-09T06:36:10.067Z,23.70
2023-05-09T06:37:10.600Z,23.50
2023-05-09T06:38:10.603Z,25.90
2023-05-09T06:39:10.592Z,21.90
2023-05-09T06:40:10.729Z,22.60
2023-05-09T06:41:10.995Z,22.80
2023-05-09T06:42:10.020Z,22.50
2023-05-09T06:43:10.018Z,23.50
2023-05-09T06:44:10.119Z,22.60
2023-05-09T06:45:10.063Z,22.30
2023-05-09T06:46:10.063Z,23.30
2023-05-09T06:47:09.960Z,20.80
2023-05-09T06:48:10.019Z,22.50
2023-05-09T06:49:09.939Z,22.70
2023-05-09T06:50:10.072Z,23.00
2023-05-09T06:51:09.936Z,21.50
2023-05-09T06:52:10.079Z,22.20
2023-05-09T06:53:09.977Z,22.90
2023-05-09T06:54:09.908Z,22.70
2023-05-09T06:55:10.932Z,20.20
2023-05-09T06:56:10.415Z,21.30
2023-05-09T06:57:09.898Z,20.70
2023-05-09T06:58:09.891Z,22.20
2023-05-09T06:59:09.921Z,21.70
2023-05-09T07:00:10.237Z,21.80
2023-05-09T07:01:10.567Z,22.30
2023-05-09T07:02:10.455Z,21.60
2023-05-09T07:03:09.898Z,21.60
2023-05-09T07:04:10.853Z,20.70
2023-05-09T07:05:10.302Z,21.50
2023-05-09T07:06:10.276Z,22.70
2023-05-09T07:07:10.493Z,22.00
2023-05-09T07:08:10.083Z,24.10
2023-05-09T07:09:10.618Z,23.70
2023-05-09T07:10:11.992Z,21.80
2023-05-09T07:11:09.806Z,20.90
2023-05-09T07:12:09.916Z,20.80
2023-05-09T07:13:09.969Z,22.00
2023-05-09T07:14:09.821Z,21.30
2023-05-09T07:15:09.765Z,22.60
2023-05-09T07:16:09.837Z,20.40
2023-05-09T07:17:22.072Z,21.70
2023-05-09T07:18:09.840Z,22.70
2023-05-09T07:19:09.778Z,22.10
2023-05-09T07:20:09.788Z,19.90
2023-05-09T07:21:09.770Z,20.80
2023-05-09T07:22:09.812Z,20.80
2023-05-09T07:23:09.802Z,21.40
2023-05-09T07:24:09.715Z,19.00
2023-05-09T07:25:09.731Z,21.40
2023-05-09T07:26:09.722Z,19.40
2023-05-09T07:27:09.722Z,18.50
2023-05-09T07:28:09.720Z,20.20
2023-05-09T07:29:09.736Z,18.10
2023-05-09T07:30:09.740Z,17.10
2023-05-09T07:31:09.737Z,20.00
2023-05-09T07:32:09.794Z,18.60
2023-05-09T07:33:09.728Z,18.30
2023-05-09T07:34:09.653Z,19.30
2023-05-09T07:35:09.700Z,16.50
2023-05-09T07:36:09.882Z,19.80
2023-05-09T07:37:09.679Z,18.50
2023-05-09T07:38:09.890Z,20.00
2023-05-09T07:39:09.591Z,18.50
2023-05-09T07:40:09.605Z,18.60
2023-05-09T07:41:09.732Z,18.60
2023-05-09T07:42:09.736Z,19.20
2023-05-09T07:43:09.837Z,18.80
2023-05-09T07:44:09.745Z,19.50
2023-05-09T07:45:09.959Z,19.20
2023-05-09T07:46:09.993Z,15.70
2023-05-09T07:47:09.536Z,16.60
2023-05-09T07:48:09.685Z,17.80
2023-05-09T07:49:09.781Z,17.10
2023-05-09T07:50:09.769Z,17.40
2023-05-09T07:51:09.584Z,17.90
2023-05-09T07:52:10.089Z,18.90
2023-05-09T07:53:09.795Z,19.20
2023-05-09T07:54:09.588Z,16.30
2023-05-09T07:55:10.122Z,17.00
2023-05-09T07:56:09.806Z,18.30
2023-05-09T07:57:10.132Z,17.00
2023-05-09T07:58:10.133Z,16.30
2023-05-09T07:59:09.455Z,17.20
2023-05-09T08:00:09.727Z,17.20
2023-05-09T08:01:09.886Z,16.20
2023-05-09T08:02:10.192Z,17.20
2023-05-09T08:03:10.461Z,16.00
2023-05-09T08:04:09.996Z,15.00
2023-05-09T08:05:10.081Z,18.20
2023-05-09T08:06:09.880Z,17.90
2023-05-09T08:07:09.480Z,16.40
2023-05-09T08:08:09.488Z,18.40
2023-05-09T08:09:09.406Z,18.00
2023-05-09T08:10:09.370Z,18.30
2023-05-09T08:11:09.504Z,16.40
2023-05-09T08:12:09.517Z,17.30
2023-05-09T08:13:09.681Z,19.60
2023-05-09T08:14:09.425Z,15.70
2023-05-09T08:15:09.454Z,17.50
2023-05-09T08:16:09.826Z,16.40
2023-05-09T08:17:09.867Z,17.70
2023-05-09T08:18:09.972Z,18.40
2023-05-09T08:19:09.979Z,18.30
2023-05-09T08:20:09.369Z,17.60
2023-05-09T08:21:09.376Z,17.70
2023-05-09T08:22:09.388Z,16.80
2023-05-09T08:23:09.297Z,16.00
2023-05-09T08:24:09.301Z,17.20
2023-05-09T08:25:09.307Z,17.00
2023-05-09T08:26:09.406Z,17.00
2023-05-09T08:27:09.423Z,15.30
2023-05-09T08:28:09.449Z,18.10
2023-05-09T08:29:09.449Z,15.60
2023-05-09T08:30:09.371Z,17.20
2023-05-09T08:31:09.391Z,18.00
2023-05-09T08:32:09.574Z,17.30
2023-05-09T08:33:09.728Z,17.10
2023-05-09T08:34:09.258Z,17.80
2023-05-09T08:35:09.293Z,16.90
2023-05-09T08:36:09.198Z,17.50
2023-05-09T08:37:09.199Z,17.20
2023-05-09T08:38:09.258Z,18.50
2023-05-09T08:39:09.193Z,17.20
2023-05-09T08:40:09.419Z,18.60
2023-05-09T08:41:09.214Z,19.80
2023-05-09T08:42:09.340Z,17.00
2023-05-09T08:43:09.441Z,15.90
2023-05-09T08:44:09.231Z,15.90
2023-05-09T08:45:09.254Z,19.80
2023-05-09T08:46:09.168Z,15.80
2023-05-09T08:47:09.458Z,15.50
2023-05-09T08:48:09.179Z,17.70
2023-05-09T08:49:09.903Z,17.40
2023-05-09T08:50:09.074Z,16.20
2023-05-09T08:51:09.177Z,17.30
2023-05-09T08:52:09.181Z,17.00
2023-05-09T08:53:09.296Z,15.10
2023-05-09T08:54:09.501Z,16.50
2023-05-09T08:55:09.109Z,16.70
2023-05-09T08:56:09.222Z,16.60
2023-05-09T08:57:09.233Z,15.40
2023-05-09T08:58:10.469Z,15.60
2023-05-09T08:59:09.848Z,16.70
2023-05-09T09:00:09.866Z,16.40
2023-05-09T09:01:09.149Z,15.90
2023-05-09T09:02:10.102Z,15.90
2023-05-09T09:03:09.643Z,15.30
2023-05-09T09:04:09.282Z,16.30
2023-05-09T09:05:19.635Z,15.10
2023-05-09T09:06:08.994Z,13.80
2023-05-09T09:07:08.992Z,15.60
2023-05-09T09:08:09.100Z,14.60
2023-05-09T09:09:09.034Z,14.50
2023-05-09T09:10:09.000Z,16.10
2023-05-09T09:11:09.339Z,13.50
2023-05-09T09:12:09.232Z,12.80
2023-05-09T09:13:09.453Z,12.80
2023-05-09T09:14:08.928Z,13.10
2023-05-09T09:15:09.457Z,16.30
2023-05-09T09:16:08.965Z,13.80
2023-05-09T09:17:09.576Z,12.70
2023-05-09T09:18:11.776Z,12.90
2023-05-09T09:19:09.696Z,12.90
2023-05-09T09:20:09.833Z,12.20
2023-05-09T09:21:08.889Z,11.60
2023-05-09T09:22:08.898Z,12.10
2023-05-09T09:23:08.924Z,10.50
2023-05-09T09:24:08.988Z,11.10
2023-05-09T09:25:08.920Z,11.80
2023-05-09T09:26:08.918Z,10.20
2023-05-09T09:27:08.947Z,13.10
2023-05-09T09:28:09.030Z,11.40
2023-05-09T09:29:09.148Z,12.60
2023-05-09T09:30:08.854Z,11.30
2023-05-09T09:31:08.970Z,11.50
2023-05-09T09:32:08.955Z,11.80
2023-05-09T09:33:08.839Z,12.90
2023-05-09T09:34:08.796Z,12.80
2023-05-09T09:35:08.803Z,11.40
2023-05-09T09:36:08.801Z,12.70
2023-05-09T09:37:08.803Z,11.50
2023-05-09T09:38:08.793Z,13.50
2023-05-09T09:39:08.805Z,12.60
2023-05-09T09:40:08.819Z,11.70
2023-05-09T09:41:08.921Z,12.50
2023-05-09T09:42:08.925Z,11.30
2023-05-09T09:43:08.838Z,12.00
2023-05-09T09:44:09.013Z,12.70
2023-05-09T09:45:08.762Z,12.70
2023-05-09T09:46:08.786Z,12.10
2023-05-09T09:47:08.957Z,11.00
2023-05-09T09:48:08.732Z,11.50
2023-05-09T09:49:08.977Z,12.50
2023-05-09T09:50:08.790Z,11.60
2023-05-09T09:51:08.917Z,12.90
2023-05-09T09:52:08.707Z,10.40
2023-05-09T09:53:08.693Z,11.60
2023-05-09T09:54:08.800Z,11.90
2023-05-09T09:55:09.020Z,11.50
2023-05-09T09:56:09.022Z,11.50
2023-05-09T09:57:09.139Z,10.70
2023-05-09T09:58:08.932Z,13.40
2023-05-09T09:59:08.676Z,11.50
2023-05-09T10:00:09.218Z,10.70
2023-05-09T10:01:09.317Z,12.00
2023-05-09T10:02:08.991Z,11.40
2023-05-09T10:03:08.673Z,11.10
2023-05-09T10:04:08.780Z,11.20
2023-05-09T10:05:08.692Z,11.70
2023-05-09T10:06:08.718Z,12.20
2023-05-09T10:07:09.031Z,11.90
2023-05-09T10:08:08.590Z,10.10
2023-05-09T10:09:09.021Z,11.70
2023-05-09T10:10:09.028Z,12.00
2023-05-09T10:11:08.623Z,12.60
2023-05-09T10:12:08.564Z,10.10
2023-05-09T10:13:08.875Z,13.00
2023-05-09T10:14:09.259Z,11.80
2023-05-09T10:15:08.852Z,11.90
2023-05-09T10:16:09.000Z,11.30
2023-05-09T10:17:08.661Z,11.70
2023-05-09T10:18:08.645Z,13.20
2023-05-09T10:19:08.504Z,10.00
2023-05-09T10:20:08.478Z,10.20
2023-05-09T10:21:08.486Z,9.20
2023-05-09T10:22:08.499Z,11.10
2023-05-09T10:23:08.528Z,11.10
2023-05-09T10:24:08.605Z,11.10
2023-05-09T10:25:08.424Z,12.80
2023-05-09T10:26:08.435Z,10.00
2023-05-09T10:27:08.549Z,11.10
2023-05-09T10:28:08.437Z,10.40
2023-05-09T10:29:08.546Z,11.70
2023-05-09T10:30:08.707Z,12.60
2023-05-09T10:31:08.956Z,13.40
2023-05-09T10:32:08.362Z,11.80
2023-05-09T10:33:08.441Z,10.20
2023-05-09T10:34:08.384Z,11.40
2023-05-09T10:35:08.369Z,12.40
2023-05-09T10:36:08.587Z,10.80
2023-05-09T10:37:08.702Z,12.00
2023-05-09T10:38:08.727Z,11.80
2023-05-09T10:39:08.726Z,12.90
2023-05-09T10:40:08.524Z,11.50
2023-05-09T10:41:08.323Z,11.90
2023-05-09T10:42:08.728Z,11.50
2023-05-09T10:43:08.534Z,11.20
2023-05-09T10:44:08.847Z,11.20
2023-05-09T10:45:08.865Z,12.30
2023-05-09T10:46:08.334Z,11.70
2023-05-09T10:47:08.596Z,10.50
2023-05-09T10:48:09.059Z,11.40
2023-05-09T10:49:08.673Z,11.20
2023-05-09T10:50:08.264Z,11.00
2023-05-09T10:51:08.909Z,11.50
2023-05-09T10:52:08.841Z,11.40
2023-05-09T10:53:09.024Z,11.90
2023-05-09T10:54:08.913Z,12.00
2023-05-09T10:55:08.304Z,9.40
2023-05-09T10:56:08.211Z,12.30
2023-05-09T10:57:08.526Z,10.70
2023-05-09T10:58:08.232Z,11.30
2023-05-09T10:59:08.237Z,11.30
2023-05-09T11:00:08.240Z,11.00
2023-05-09T11:01:08.264Z,11.70
2023-05-09T11:02:08.166Z,11.50
2023-05-09T11:03:08.381Z,11.50
2023-05-09T11:04:08.505Z,10.00
2023-05-09T11:05:08.619Z,10.80
2023-05-09T11:06:08.172Z,11.40
2023-05-09T11:07:08.409Z,10.50
2023-05-09T11:08:08.501Z,10.80
2023-05-09T11:09:08.827Z,11.20
2023-05-09T11:10:08.234Z,10.40
2023-05-09T11:11:08.528Z,10.90
2023-05-09T11:12:08.630Z,10.80
2023-05-09T11:13:08.685Z,10.70
2023-05-09T11:14:08.060Z,10.60
2023-05-09T11:15:08.092Z,10.00
2023-05-09T11:16:08.058Z,10.10
2023-05-09T11:17:08.053Z,9.00
2023-05-09T11:18:08.467Z,10.60
2023-05-09T11:19:08.098Z,9.60
2023-05-09T11:20:08.100Z,10.10
2023-05-09T11:21:08.083Z,9.40
2023-05-09T11:22:08.086Z,11.20
2023-05-09T11:23:08.008Z,9.40
2023-05-09T11:24:07.998Z,9.40
2023-05-09T11:25:08.026Z,9.10
2023-05-09T11:26:08.048Z,10.10
2023-05-09T11:27:08.028Z,9.90
2023-05-09T11:28:08.038Z,9.90
2023-05-09T11:29:07.965Z,11.70
2023-05-09T11:30:07.964Z,9.80
2023-05-09T11:31:08.065Z,10.30
2023-05-09T11:32:08.149Z,10.80
2023-05-09T11:33:07.992Z,10.20
2023-05-09T11:35:34.170Z,7.80
2023-05-09T11:36:34.132Z,8.30
2023-05-09T11:37:34.435Z,10.90
2023-05-09T11:38:34.420Z,8.40
2023-05-09T11:39:34.125Z,8.20
2023-05-09T11:40:33.883Z,9.80
2023-05-09T11:41:33.839Z,10.70
2023-05-09T11:42:34.129Z,11.00
2023-05-09T11:43:34.148Z,10.90
2023-05-09T11:44:34.338Z,11.40
2023-05-09T11:45:34.561Z,9.80
2023-05-09T11:46:34.577Z,11.20
2023-05-09T11:47:34.033Z,9.60
2023-05-09T11:48:34.204Z,10.20
2023-05-09T11:49:34.591Z,10.90
2023-05-09T11:50:34.191Z,9.40
2023-05-09T11:51:33.799Z,10.80
2023-05-09T11:52:33.760Z,10.00
2023-05-09T11:53:33.795Z,9.90
2023-05-09T11:54:33.909Z,9.60
2023-05-09T11:55:33.985Z,10.30
2023-05-09T11:56:33.752Z,11.40
2023-05-09T11:57:33.917Z,10.80
2023-05-09T11:58:33.917Z,9.60
2023-05-09T11:59:33.739Z,9.40
2023-05-09T12:00:33.822Z,9.40
2023-05-09T12:01:33.699Z,9.60
2023-05-09T12:02:33.751Z,10.00
2023-05-09T12:03:33.751Z,9.70
2023-05-09T12:04:33.714Z,11.50
2023-05-09T12:05:33.712Z,9.30
2023-05-09T12:06:33.705Z,9.50
2023-05-09T12:07:33.698Z,9.90
2023-05-09T12:08:33.833Z,10.90
2023-05-09T12:09:33.801Z,9.00
2023-05-09T12:10:33.728Z,9.40
2023-05-09T12:11:33.616Z,8.30
2023-05-09T12:12:33.619Z,10.10
2023-05-09T12:13:33.635Z,9.00
2023-05-09T12:14:33.645Z,8.80
2023-05-09T12:15:33.659Z,8.00
2023-05-09T12:16:33.603Z,9.80
2023-05-09T12:17:33.688Z,8.60
2023-05-09T12:18:33.681Z,8.50
2023-05-09T12:19:33.541Z,8.80
2023-05-09T12:20:33.536Z,8.60
2023-05-09T12:21:33.602Z,9.70
2023-05-09T12:22:33.576Z,9.00
2023-05-09T12:23:33.572Z,7.90
2023-05-09T12:24:33.510Z,8.60
2023-05-09T12:25:33.512Z,9.40
2023-05-09T12:26:33.583Z,9.90
2023-05-09T12:27:33.648Z,10.00
2023-05-09T12:28:33.631Z,9.90
2023-05-09T12:29:33.645Z,10.10
2023-05-09T12:30:33.663Z,13.70
2023-05-09T12:31:33.723Z,12.10
2023-05-09T12:32:33.700Z,12.10
2023-05-09T12:33:33.699Z,13.10
2023-05-09T12:34:33.720Z,12.00
2023-05-09T12:35:33.720Z,14.50
2023-05-09T12:36:33.726Z,12.60
2023-05-09T12:37:33.562Z,16.00
2023-05-09T12:38:34.925Z,16.00
2023-05-09T12:39:33.757Z,14.50
2023-05-09T12:40:33.771Z,14.80
2023-05-09T12:41:41.549Z,13.40
2023-05-09T12:42:33.813Z,15.20
2023-05-09T12:43:33.809Z,16.00
2023-05-09T12:44:33.831Z,15.70
2023-05-09T12:45:33.535Z,14.40
2023-05-09T12:46:35.694Z,16.10
2023-05-09T12:47:33.677Z,17.70
2023-05-09T12:48:33.649Z,16.10
2023-05-09T12:49:33.454Z,14.40
2023-05-09T12:50:33.507Z,13.90
2023-05-09T12:51:33.376Z,14.60
2023-05-09T12:52:33.310Z,12.80
2023-05-09T12:53:33.308Z,12.30
2023-05-09T12:54:33.311Z,13.10
2023-05-09T12:55:33.348Z,13.10
2023-05-09T12:56:33.282Z,12.60
2023-05-09T12:57:33.415Z,13.00
2023-05-09T12:58:33.678Z,12.30
2023-05-09T12:59:33.443Z,12.80